153 км

Карта отелей и гостиниц, располагающихся рядом с аэропортом 153 км :

153 км Красноярский край 69° 28' 9.3612" N, 85° 56' 26.88" E
153 км Красноярский край 69° 28' 9.3612" N, 85° 56' 26.88" E
Код аэродрома ИКАО
HDT5
Код аэродрома RU
ХДТ5
Координаты
N69.46927° E085.94080°
Превышение над уровнем моря
25
Основная полоса
Курс магнитный
Длина основной ВПП
Ширина основной ВПП
Покрытие основной ВПП
Освещение ВПП
Тип: 
Вертодром
Класс аэродрома: 
Принадлежность: 
ГА
Статус: 
Действующий
Сайт: 
E-mail аэродрома: 
Страна: 
Россия
Регион: 
Красноярский край
Город: 
Дополнительная информация: 

Найти трансфер

С помощью этой формы Вы можете найти трансфер из аэропорта 153 км в город, аэропорт или вокзал:

Карта места

Javascript is required to view this map.

Погода в аэропортах:

Авиационная погода в Магнитогорске

Погода METAR: 
USCM 051100Z 15003MPS 9999 TS BKN040CB 32/12 Q1009 R18/090060 TEMPO VRB21MPS 2000 TSRAGR SQ BKN007CB RMK QFE719
Время наблюдения
2021-08-05T11:00:00Z
Температура C
32.0
Точка росы
12.0
Направление ветра
150
Скорость ветра (узлы)
6
Метео видимость
6.21
Явления погоды
TS
Условия полета
VFR
Аэропорт подробнее: 

Авиационная погода в Хомутово

Регион: 
Погода METAR: 
UHSS 051100Z 35004MPS 9000 -SHRA BKN008 BKN012CB 18/18 Q1006 R01/70D NOSIG RMK MT OBSC QFE754/1005
Время наблюдения
2021-08-05T11:00:00Z
Температура C
18.0
Точка росы
18.0
Направление ветра
350
Скорость ветра (узлы)
8
Метео видимость
5.59
Явления погоды
-SHRA
Условия полета
IFR
Аэропорт подробнее: 

Авиационная погода в Лаппеэнранта

Регион: 
Погода METAR: 
EFLP 051050Z AUTO 36005KT 290V060 9999 VCSH //////CB 19/07 Q1016
Время наблюдения
2021-08-05T10:50:00Z
Температура C
19.0
Точка росы
7.0
Направление ветра
360
Скорость ветра (узлы)
5
Метео видимость
6.21
Явления погоды
VCSH
Условия полета

Авиационная погода в Братске

Регион: 
Погода METAR: 
UIBB 051100Z 32003MPS 1100 R30/1100N FU BKN018CB 20/15 Q1004 R30/CLRD60 NOSIG RMK QFE710/0947
Время наблюдения
2021-08-05T11:00:00Z
Температура C
20.0
Точка росы
15.0
Направление ветра
320
Скорость ветра (узлы)
6
Метео видимость
0.68
Явления погоды
FU
Условия полета
LIFR
Аэропорт подробнее: